Aviation Digital Data Service (ADDS)

Output produced by METARs form (1341 UTC 21 August 2019)
found at http://www.aviationweather.gov/metar/data/
 
Forecast for: NGTA (TARAWA KIRIBATI , FJ)
Text: TAF NGTA 211123Z 2112/2212 12007KT 9999 -SHRA SCT018 BKN040
Forecast period: 1200 UTC 21 August 2019 to 1200 UTC 22 August 2019
Forecast type: FROM: standard forecast or significant change
Winds: from the ESE (120 degrees) at 8 MPH (7 knots; 3.6 m/s)
Visibility: 6 or more miles 10+ km)
Ceiling: 4000 feet AGL
Clouds: scattered clouds at 1800 feet AGL
broken clouds at 4000 feet AGL
Weather: -SHRA  (light rain showers)
Text: PROB30
Forecast period: 1800 UTC 21 August 2019 to 0000 UTC 22 August 2019
Forecast type: TEMPORARY: The following changes expected for less than half the time period
Visibility: 3 miles (5 km)
Ceiling: at least 12,000 feet AGL
Clouds: few clouds at 1600 feet AGL
Weather: TSRA  (rain associated with thunderstorm(s))